Time;durP1;ratioP1;P1;durP2;ratioP2;P2;SDS_P1;SDS_P2;PMS_P1;PMS_P2;Temp;Humidity;BMP_temperature;BMP_pressure;BME280_temperature;BME280_humidity;BME280_pressure;Samples;Min_cycle;Max_cycle;Signal;HPM_P1;HPM_P2
2023/03/25 00:01:41;;;;;;;2.53;0.47;;;;;;;11.43;75.87;99765.22;5032688;28;20743;-74
2023/03/25 00:04:06;;;;;;;3.80;0.80;;;;;;;11.44;75.79;99758.72;5036396;28;20893;-74
2023/03/25 00:06:35;;;;;;;5.20;1.10;;;;;;;11.43;75.30;99748.13;5016400;28;20476;-74
2023/03/25 00:09:02;;;;;;;4.23;0.37;;;;;;;11.39;75.06;99742.41;5032429;28;20746;-74
2023/03/25 00:11:28;;;;;;;1.98;0.70;;;;;;;11.38;74.55;99740.00;5021927;28;20392;-74
2023/03/25 00:13:53;;;;;;;2.10;0.32;;;;;;;11.39;73.80;99738.91;5026891;28;20754;-74
2023/03/25 00:16:18;;;;;;;3.03;0.53;;;;;;;11.36;73.42;99740.25;5014638;28;20447;-74
2023/03/25 00:18:46;;;;;;;2.10;0.40;;;;;;;11.36;73.41;99742.16;5026452;28;20488;-74
2023/03/25 00:21:12;;;;;;;4.50;0.43;;;;;;;11.35;73.28;99726.97;5021190;28;20458;-74
2023/03/25 00:23:40;;;;;;;1.15;0.60;;;;;;;11.24;72.92;99731.53;5018785;28;20480;-74
2023/03/25 00:26:06;;;;;;;1.30;0.45;;;;;;;11.16;73.28;99740.22;5029773;28;20395;-74
2023/03/25 00:28:34;;;;;;;3.30;0.65;;;;;;;11.24;73.35;99728.81;5026896;28;20400;-74
2023/03/25 00:31:02;;;;;;;2.03;0.40;;;;;;;11.18;73.65;99731.78;5021717;28;20518;-74
2023/03/25 00:33:28;;;;;;;2.15;0.40;;;;;;;11.24;74.03;99730.72;5025917;28;20391;-74
2023/03/25 00:36:00;;;;;;;2.08;0.63;;;;;;;11.27;74.33;99724.75;5030651;28;20399;-74
2023/03/25 00:38:34;;;;;;;3.03;0.88;;;;;;;11.32;74.69;99731.03;5025367;28;20416;-74
2023/03/25 00:41:21;;;;;;;2.90;0.60;;;;;;;11.39;74.48;99717.22;5028815;28;20417;-74
2023/03/25 00:43:48;;;;;;;1.60;0.85;;;;;;;11.43;74.67;99723.72;5030574;28;20402;-74
2023/03/25 00:46:15;;;;;;;2.72;0.75;;;;;;;11.48;74.11;99714.78;5016063;28;20391;-74
2023/03/25 00:48:40;;;;;;;2.80;1.00;;;;;;;11.48;74.06;99712.06;5021411;28;20404;-74
2023/03/25 00:51:08;;;;;;;3.63;0.68;;;;;;;11.45;74.10;99706.09;5024870;28;20383;-74
2023/03/25 00:53:35;;;;;;;5.03;0.80;;;;;;;11.50;73.82;99702.56;5015733;28;20832;-75
2023/03/25 00:56:01;;;;;;;2.50;0.82;;;;;;;11.49;73.86;99689.28;5022890;28;20384;-74
2023/03/25 00:58:27;;;;;;;3.38;0.60;;;;;;;11.48;73.65;99693.06;5031660;28;20882;-74
2023/03/25 01:00:52;;;;;;;4.53;0.90;;;;;;;11.42;73.22;99690.38;5019242;28;20480;-74
2023/03/25 01:03:17;;;;;;;2.00;0.50;;;;;;;11.37;72.62;99693.06;5027929;28;20391;-74
2023/03/25 01:05:43;;;;;;;1.75;0.50;;;;;;;11.36;72.93;99691.41;5014552;28;20390;-74
2023/03/25 01:08:09;;;;;;;2.75;0.68;;;;;;;11.41;72.60;99686.00;5022737;28;20745;-74
2023/03/25 01:10:36;;;;;;;3.28;0.60;;;;;;;11.37;72.06;99682.19;5022093;28;20398;-75
2023/03/25 01:13:01;;;;;;;1.17;0.22;;;;;;;11.41;71.62;99666.19;5015564;28;20404;-74
2023/03/25 01:15:26;;;;;;;0.93;0.73;;;;;;;11.44;71.48;99661.06;5030955;28;20755;-74
2023/03/25 01:17:52;;;;;;;2.00;0.60;;;;;;;11.37;70.87;99659.69;5031603;28;20415;-73
2023/03/25 01:20:17;;;;;;;5.33;0.70;;;;;;;11.39;70.61;99671.09;5021021;28;20416;-74
2023/03/25 01:22:42;;;;;;;2.40;0.60;;;;;;;11.43;70.30;99677.59;5025867;28;20418;-74
2023/03/25 01:25:08;;;;;;;3.90;1.20;;;;;;;11.41;70.16;99691.44;5014142;28;20393;-74
2023/03/25 01:27:33;;;;;;;11.02;1.02;;;;;;;11.37;71.02;99722.88;5026027;28;20556;-75
2023/03/25 01:29:58;;;;;;;3.10;0.50;;;;;;;11.27;72.95;99732.91;5019549;28;20883;-74
2023/03/25 01:32:24;;;;;;;3.30;0.60;;;;;;;11.29;73.75;99744.31;5028594;28;20450;-74
2023/03/25 01:34:49;;;;;;;2.53;0.70;;;;;;;11.15;75.47;99773.00;5034478;28;20474;-74
2023/03/25 01:37:14;;;;;;;3.55;0.68;;;;;;;11.00;76.38;99762.09;5019821;28;20854;-74
2023/03/25 01:39:40;;;;;;;4.97;0.80;;;;;;;10.81;76.93;99767.13;5027208;28;20420;-74
2023/03/25 01:42:05;;;;;;;2.07;0.67;;;;;;;10.75;77.07;99769.00;5027216;28;20434;-74
2023/03/25 01:44:50;;;;;;;3.80;0.50;;;;;;;10.76;78.14;99761.69;5019694;28;20747;-74
2023/03/25 01:47:16;;;;;;;1.80;0.30;;;;;;;10.75;78.34;99755.47;5020751;28;20429;-74
2023/03/25 01:49:45;;;;;;;1.27;0.27;;;;;;;10.69;78.05;99744.84;5025477;28;20425;-73
2023/03/25 01:52:15;;;;;;;2.72;0.50;;;;;;;10.63;77.99;99767.59;5029054;28;20785;-74
2023/03/25 01:54:42;;;;;;;2.07;0.30;;;;;;;10.56;77.95;99751.56;5018903;28;20389;-74
2023/03/25 01:57:09;;;;;;;1.37;0.20;;;;;;;10.45;77.84;99744.44;5034956;28;20515;-74
2023/03/25 01:59:36;;;;;;;2.22;0.30;;;;;;;10.42;78.19;99747.66;5024783;28;20416;-74
2023/03/25 02:02:05;;;;;;;1.13;0.35;;;;;;;10.37;78.32;99715.94;5029063;28;20387;-74
2023/03/25 02:04:39;;;;;;;1.00;0.20;;;;;;;10.39;78.47;99729.22;5019045;28;20927;-74
2023/03/25 02:07:09;;;;;;;1.37;0.20;;;;;;;10.33;78.38;99703.19;5034797;28;20395;-74
2023/03/25 02:09:36;;;;;;;0.35;0.20;;;;;;;10.40;78.41;99720.03;5023424;28;20464;-74
2023/03/25 02:12:01;;;;;;;2.38;0.40;;;;;;;10.49;78.45;99702.22;5030184;28;20387;-74
2023/03/25 02:14:31;;;;;;;0.73;0.20;;;;;;;10.50;78.05;99709.28;5015055;28;20397;-74
2023/03/25 02:17:28;;;;;;;1.90;0.30;;;;;;;10.51;77.88;99720.91;5022369;28;20438;-74
2023/03/25 02:20:22;;;;;;;2.53;0.30;;;;;;;10.57;77.81;99728.00;5019726;28;20519;-74
2023/03/25 02:23:00;;;;;;;2.50;0.35;;;;;;;10.52;77.72;99725.25;5021750;28;20399;-73
2023/03/25 02:26:09;;;;;;;2.25;0.32;;;;;;;10.46;77.81;99727.13;5034425;28;20387;-74
2023/03/25 02:29:09;;;;;;;0.20;0.20;;;;;;;10.45;77.70;99733.59;5020579;28;20387;-74
2023/03/25 02:31:52;;;;;;;0.63;0.30;;;;;;;10.46;77.41;99739.84;5044388;28;20486;-73
2023/03/25 02:34:36;;;;;;;0.32;0.32;;;;;;;10.44;77.30;99737.38;5028881;28;20394;-74
2023/03/25 02:37:39;;;;;;;6.13;3.40;;;;;;;10.45;77.14;99746.31;5033243;28;20384;-74
2023/03/25 02:40:13;;;;;;;0.30;0.30;;;;;;;10.43;77.24;99741.19;5017140;28;20766;-73
2023/03/25 02:42:47;;;;;;;1.00;0.40;;;;;;;10.47;77.17;99744.19;5034189;28;20406;-74
2023/03/25 02:45:26;;;;;;;1.30;0.28;;;;;;;10.40;77.48;99741.72;5019667;28;20423;-74
2023/03/25 02:47:58;;;;;;;0.90;0.13;;;;;;;10.43;77.24;99745.78;5029036;28;20790;-74
2023/03/25 02:50:36;;;;;;;1.27;0.25;;;;;;;10.44;76.97;99742.00;5021887;28;20889;-74
2023/03/25 02:53:09;;;;;;;1.70;0.40;;;;;;;10.40;77.41;99752.53;5020840;28;20450;-73
2023/03/25 02:55:36;;;;;;;2.20;0.22;;;;;;;10.32;77.49;99761.13;5015401;28;20482;-74
2023/03/25 02:58:04;;;;;;;0.80;0.30;;;;;;;10.27;77.57;99744.88;5033809;28;20384;-74
2023/03/25 03:00:31;;;;;;;0.30;0.20;;;;;;;10.23;77.85;99741.03;5033691;28;20406;-74
2023/03/25 03:03:02;;;;;;;1.40;0.30;;;;;;;10.25;77.85;99745.13;5020033;28;20393;-74
2023/03/25 03:05:32;;;;;;;1.00;0.30;;;;;;;10.14;78.03;99742.59;5030201;28;20813;-73
2023/03/25 03:08:13;;;;;;;1.05;0.20;;;;;;;10.21;77.85;99760.25;5020333;28;20404;-73
2023/03/25 03:11:11;;;;;;;1.80;0.30;;;;;;;10.21;77.89;99759.44;5046245;28;20400;-74
2023/03/25 03:14:07;;;;;;;1.50;0.20;;;;;;;10.25;77.56;99747.00;5018200;28;20754;-74
2023/03/25 03:16:36;;;;;;;0.63;0.20;;;;;;;10.27;77.14;99750.28;5033470;28;20499;-73
2023/03/25 03:19:09;;;;;;;0.73;0.38;;;;;;;10.24;76.70;99745.41;5045805;28;20404;-74
2023/03/25 03:21:37;;;;;;;1.10;0.50;;;;;;;10.17;76.99;99748.31;5028310;28;20761;-74
2023/03/25 03:24:19;;;;;;;0.60;0.20;;;;;;;10.18;76.38;99751.81;5022859;28;20901;-73
2023/03/25 03:27:22;;;;;;;1.98;0.20;;;;;;;10.23;76.10;99749.16;5018077;28;20401;-74
2023/03/25 03:29:52;;;;;;;0.85;0.32;;;;;;;10.31;75.99;99762.22;5023457;28;20407;-74
2023/03/25 03:32:44;;;;;;;0.20;0.20;;;;;;;10.31;75.58;99762.22;5041052;28;20399;-74
2023/03/25 03:35:17;;;;;;;0.90;0.10;;;;;;;10.29;75.51;99765.19;5032978;28;20395;-74
2023/03/25 03:37:51;;;;;;;1.50;0.40;;;;;;;10.27;75.24;99761.91;5024487;28;20409;-74
2023/03/25 03:40:20;;;;;;;2.23;0.50;;;;;;;10.26;75.32;99759.47;5026454;28;20418;-74
2023/03/25 03:43:00;;;;;;;1.20;0.13;;;;;;;10.34;75.13;99767.13;5016833;28;20404;-74
2023/03/25 03:45:48;;;;;;;0.40;0.30;;;;;;;10.32;75.14;99771.97;5032777;28;20387;-73
2023/03/25 03:48:22;;;;;;;0.45;0.20;;;;;;;10.29;75.01;99773.31;5018763;28;20393;-74
2023/03/25 03:50:55;;;;;;;1.45;0.15;;;;;;;10.33;74.84;99766.31;5028930;28;20389;-74
2023/03/25 03:53:32;;;;;;;1.70;0.43;;;;;;;10.27;74.96;99780.06;5020737;28;20486;-74
2023/03/25 03:56:06;;;;;;;0.45;0.13;;;;;;;10.35;74.58;99779.56;5032760;28;20437;-74
2023/03/25 03:58:36;;;;;;;1.70;0.38;;;;;;;10.35;74.54;99776.88;5015378;28;20401;-73
2023/03/25 04:01:26;;;;;;;1.38;0.50;;;;;;;10.29;74.28;99772.50;5026424;28;20421;-74
2023/03/25 04:03:57;;;;;;;0.77;0.27;;;;;;;10.31;74.25;99773.88;5024817;28;20390;-74
2023/03/25 04:06:29;;;;;;;0.93;0.28;;;;;;;10.24;74.19;99770.56;5032616;28;20418;-74
2023/03/25 04:09:05;;;;;;;2.40;0.47;;;;;;;10.29;73.99;99778.72;5026369;28;20787;-74
2023/03/25 04:11:44;;;;;;;2.75;0.70;;;;;;;10.36;73.14;99783.94;5023839;28;20395;-74
2023/03/25 04:14:12;;;;;;;1.10;0.40;;;;;;;10.35;72.92;99785.00;5016342;28;20404;-73
2023/03/25 04:16:37;;;;;;;2.40;0.30;;;;;;;10.36;72.36;99783.94;5027434;28;20392;-74
2023/03/25 04:19:04;;;;;;;3.13;0.50;;;;;;;10.41;72.56;99794.78;5019134;28;20739;-74
2023/03/25 04:21:30;;;;;;;4.07;0.47;;;;;;;10.46;72.26;99789.41;5019621;28;21133;-74
2023/03/25 04:24:00;;;;;;;2.00;0.47;;;;;;;10.44;72.33;99777.22;5028826;28;20394;-74
2023/03/25 04:26:32;;;;;;;2.65;0.68;;;;;;;10.44;72.05;99783.44;5027265;28;20749;-74
2023/03/25 04:28:58;;;;;;;1.23;0.45;;;;;;;10.46;71.92;99775.88;5023634;28;20407;-74
2023/03/25 04:31:24;;;;;;;2.58;0.77;;;;;;;10.48;71.88;99757.47;5017864;28;20397;-74
2023/03/25 04:33:50;;;;;;;1.83;0.40;;;;;;;10.43;71.89;99748.50;5027218;28;20407;-74
2023/03/25 04:36:16;;;;;;;1.80;0.45;;;;;;;10.43;71.87;99760.16;5015121;28;20407;-74
2023/03/25 04:38:44;;;;;;;4.80;0.30;;;;;;;10.44;71.54;99759.06;5019946;28;20408;-74
2023/03/25 04:41:10;;;;;;;2.40;0.60;;;;;;;10.50;71.35;99755.31;5019255;28;20425;-74
2023/03/25 04:43:38;;;;;;;4.30;0.60;;;;;;;10.49;71.09;99764.53;5026818;28;20399;-74
2023/03/25 04:46:04;;;;;;;2.40;0.70;;;;;;;10.49;71.16;99753.69;5016419;28;20508;-74
2023/03/25 04:48:30;;;;;;;2.40;0.57;;;;;;;10.48;71.03;99751.22;5031759;28;20434;-74
2023/03/25 04:50:57;;;;;;;2.60;0.60;;;;;;;10.45;71.25;99757.16;5031856;28;20879;-74
2023/03/25 04:53:24;;;;;;;3.55;1.13;;;;;;;10.51;70.97;99762.34;5016328;28;20912;-73
2023/03/25 04:55:50;;;;;;;5.63;0.95;;;;;;;10.55;70.52;99765.34;5015821;28;20478;-74
2023/03/25 04:58:16;;;;;;;5.78;0.90;;;;;;;10.57;70.39;99760.50;5043837;28;20400;-74
2023/03/25 05:00:43;;;;;;;5.43;1.02;;;;;;;10.58;70.21;99768.38;5024610;28;20415;-75
2023/03/25 05:03:10;;;;;;;2.45;0.82;;;;;;;10.57;70.02;99772.13;5031106;28;20387;-74
2023/03/25 05:05:36;;;;;;;6.25;1.20;;;;;;;10.56;70.12;99769.72;5015622;28;20809;-73
2023/03/25 05:08:02;;;;;;;5.15;0.65;;;;;;;10.55;69.62;99778.91;5024429;28;20876;-74
2023/03/25 05:10:31;;;;;;;6.10;0.70;;;;;;;10.53;69.63;99775.66;5022038;28;20406;-74
2023/03/25 05:13:02;;;;;;;3.25;0.50;;;;;;;10.54;69.70;99777.28;5015547;28;20428;-74
2023/03/25 05:15:31;;;;;;;3.15;0.60;;;;;;;10.51;69.51;99772.38;5031409;28;20874;-74
2023/03/25 05:17:57;;;;;;;8.65;1.30;;;;;;;10.54;69.69;99780.78;5024016;28;20876;-74
2023/03/25 05:20:22;;;;;;;3.07;0.50;;;;;;;10.61;69.81;99772.44;5022934;28;20584;-74
2023/03/25 05:22:48;;;;;;;5.60;0.70;;;;;;;10.58;69.27;99778.38;5030570;28;20403;-74
2023/03/25 05:25:13;;;;;;;4.23;0.83;;;;;;;10.54;69.13;99775.38;5015483;28;20399;-74
2023/03/25 05:27:38;;;;;;;5.10;0.73;;;;;;;10.54;69.24;99780.00;5031103;28;20743;-74
2023/03/25 05:30:06;;;;;;;4.60;0.73;;;;;;;10.60;69.07;99778.94;5020985;28;20405;-74
2023/03/25 05:32:34;;;;;;;4.68;0.80;;;;;;;10.56;69.14;99786.78;5026002;28;20395;-74
2023/03/25 05:35:00;;;;;;;3.78;0.88;;;;;;;10.61;69.02;99785.97;5015545;28;20452;-74
2023/03/25 05:37:26;;;;;;;4.50;1.13;;;;;;;10.65;68.89;99787.09;5031124;28;20415;-74
2023/03/25 05:39:51;;;;;;;4.00;0.60;;;;;;;10.67;68.89;99793.09;5020952;28;20420;-74
2023/03/25 05:42:21;;;;;;;7.30;0.83;;;;;;;10.65;69.02;99790.63;5013604;28;20428;-74
2023/03/25 05:44:49;;;;;;;2.67;0.82;;;;;;;10.69;68.92;99786.31;5025569;28;20410;-74
2023/03/25 05:47:16;;;;;;;6.95;1.23;;;;;;;10.73;69.10;99783.91;5036869;28;20922;-74
2023/03/25 05:49:42;;;;;;;10.63;1.10;;;;;;;10.72;69.22;99788.50;5028579;28;20872;-73
2023/03/25 05:52:08;;;;;;;5.17;1.00;;;;;;;10.73;69.35;99783.91;5026943;28;20502;-74
2023/03/25 05:54:37;;;;;;;4.50;0.85;;;;;;;10.76;69.44;99778.78;5029071;28;20421;-74
2023/03/25 05:57:03;;;;;;;5.40;0.90;;;;;;;10.80;69.44;99784.50;5027387;28;20468;-74
2023/03/25 05:59:28;;;;;;;6.70;2.03;;;;;;;10.82;69.64;99779.63;5030533;28;20391;-74
2023/03/25 06:01:53;;;;;;;6.57;2.00;;;;;;;10.79;69.74;99780.16;5034667;28;20871;-74
2023/03/25 06:04:20;;;;;;;5.50;1.40;;;;;;;10.74;69.97;99789.06;5033704;28;20402;-73
2023/03/25 06:06:46;;;;;;;3.67;0.80;;;;;;;10.76;70.24;99784.22;5031054;28;20735;-74
2023/03/25 06:09:11;;;;;;;5.37;1.50;;;;;;;10.78;70.04;99786.63;5026530;28;20395;-72
2023/03/25 06:11:36;;;;;;;1.93;0.90;;;;;;;10.79;70.42;99789.09;5019835;28;20408;-73
2023/03/25 06:14:03;;;;;;;3.67;1.17;;;;;;;10.76;70.29;99783.38;5026394;28;20438;-74
2023/03/25 06:16:29;;;;;;;2.50;0.50;;;;;;;10.72;70.31;99788.50;5031615;28;20754;-72
2023/03/25 06:19:01;;;;;;;2.95;0.63;;;;;;;10.77;70.39;99793.13;5025218;28;20414;-73
2023/03/25 06:21:28;;;;;;;4.75;0.90;;;;;;;10.86;70.06;99797.00;5027548;28;20427;-73
2023/03/25 06:23:53;;;;;;;3.45;1.27;;;;;;;11.01;69.86;99797.06;5020707;28;20411;-73
2023/03/25 06:26:20;;;;;;;3.10;1.10;;;;;;;11.01;69.94;99802.50;5030857;28;20449;-73
2023/03/25 06:28:46;;;;;;;4.43;0.80;;;;;;;10.99;70.48;99801.13;5028469;28;20418;-73
2023/03/25 06:31:25;;;;;;;2.53;1.23;;;;;;;10.98;70.37;99808.44;5029642;28;20759;-73
2023/03/25 06:33:51;;;;;;;6.43;0.70;;;;;;;11.00;70.48;99805.47;5031717;28;20427;-73
2023/03/25 06:36:19;;;;;;;2.50;0.63;;;;;;;11.03;70.17;99811.16;5028154;28;20472;-73
2023/03/25 06:38:45;;;;;;;3.33;0.70;;;;;;;11.09;69.88;99807.44;5018208;28;20415;-73
2023/03/25 06:41:12;;;;;;;2.78;0.55;;;;;;;11.14;69.22;99812.03;5021061;28;20417;-74
2023/03/25 06:43:38;;;;;;;2.13;0.57;;;;;;;11.07;69.35;99814.16;5031063;28;20748;-73
2023/03/25 06:46:04;;;;;;;2.97;0.57;;;;;;;11.20;69.08;99808.25;5029481;28;20455;-73
2023/03/25 06:48:29;;;;;;;1.65;0.45;;;;;;;11.20;68.99;99819.09;5020603;28;20407;-73
2023/03/25 06:50:55;;;;;;;3.10;0.63;;;;;;;11.33;68.41;99824.06;5026616;28;20415;-73
2023/03/25 06:53:20;;;;;;;2.53;0.50;;;;;;;11.45;67.99;99820.06;5016785;28;20393;-72
2023/03/25 06:55:46;;;;;;;3.13;0.70;;;;;;;11.50;67.95;99818.41;5017973;28;20403;-73
2023/03/25 06:58:11;;;;;;;1.67;0.50;;;;;;;11.40;68.05;99819.19;5032925;28;20403;-73
2023/03/25 07:00:37;;;;;;;1.93;1.17;;;;;;;11.34;68.50;99814.84;5021764;28;20420;-73
2023/03/25 07:03:02;;;;;;;2.73;0.70;;;;;;;11.29;68.71;99809.41;5037030;28;20395;-73
2023/03/25 07:05:27;;;;;;;2.30;0.40;;;;;;;11.31;68.61;99812.66;5026043;28;20438;-73
2023/03/25 07:07:53;;;;;;;2.70;0.50;;;;;;;11.44;68.03;99806.75;5031168;28;20403;-73
2023/03/25 07:10:18;;;;;;;1.92;0.40;;;;;;;11.44;68.20;99806.75;5033523;28;20808;-73
2023/03/25 07:12:44;;;;;;;2.03;0.40;;;;;;;11.62;68.04;99808.16;5026369;28;20403;-73
2023/03/25 07:15:09;;;;;;;2.40;0.30;;;;;;;11.73;67.61;99812.53;5020398;28;20400;-73
2023/03/25 07:17:35;;;;;;;3.70;0.73;;;;;;;12.26;66.27;99811.25;5028655;28;20710;-73
2023/03/25 07:20:00;;;;;;;1.90;0.40;;;;;;;12.46;64.67;99811.25;5033030;28;20414;-73
2023/03/25 07:22:25;;;;;;;2.30;0.47;;;;;;;12.04;66.15;99813.44;5004109;28;20409;-72
2023/03/25 07:24:51;;;;;;;1.40;0.30;;;;;;;11.90;66.61;99802.28;5025079;28;20395;-73
2023/03/25 07:27:17;;;;;;;1.98;0.60;;;;;;;12.01;66.56;99812.06;5017989;28;21129;-73
2023/03/25 07:29:42;;;;;;;3.40;0.47;;;;;;;12.43;64.96;99812.63;5043081;28;20905;-73
2023/03/25 07:32:08;;;;;;;2.70;0.77;;;;;;;12.36;65.15;99806.66;5036345;28;20500;-73
2023/03/25 07:34:33;;;;;;;1.67;0.40;;;;;;;12.09;65.33;99805.28;5023052;28;20880;-73
2023/03/25 07:36:58;;;;;;;2.35;0.45;;;;;;;11.95;65.78;99807.72;5028846;28;20400;-73
2023/03/25 07:39:24;;;;;;;2.17;0.53;;;;;;;11.96;66.16;99817.47;5031215;28;20863;-73
2023/03/25 07:41:50;;;;;;;1.00;0.30;;;;;;;11.94;65.75;99806.91;5027661;28;20807;-73
2023/03/25 07:44:19;;;;;;;3.83;0.60;;;;;;;11.97;65.93;99805.53;5019755;28;20922;-73
2023/03/25 07:46:44;;;;;;;1.48;0.30;;;;;;;11.98;65.68;99801.75;5017998;28;20391;-73
2023/03/25 07:49:10;;;;;;;1.70;0.60;;;;;;;12.03;65.96;99798.22;5018182;28;20403;-73
2023/03/25 07:51:35;;;;;;;1.20;0.37;;;;;;;12.07;65.92;99788.44;5026969;28;20881;-73
2023/03/25 07:54:00;;;;;;;2.30;0.63;;;;;;;12.08;65.71;99782.75;5041563;28;20427;-73
2023/03/25 07:56:25;;;;;;;4.40;0.43;;;;;;;12.21;65.28;99781.41;5032725;28;20395;-73
2023/03/25 07:58:51;;;;;;;2.60;0.90;;;;;;;12.29;65.26;99788.97;5027751;28;20400;-73
2023/03/25 08:01:16;;;;;;;2.00;0.30;;;;;;;12.70;64.54;99781.63;5019420;28;20421;-73
2023/03/25 08:03:41;;;;;;;3.90;0.60;;;;;;;12.79;63.82;99780.78;5025199;28;20395;-73
2023/03/25 08:06:07;;;;;;;1.90;0.60;;;;;;;12.93;63.79;99791.88;5032579;28;20452;-73
2023/03/25 08:08:33;;;;;;;1.63;0.73;;;;;;;12.82;63.52;99798.44;5015343;28;20403;-73
2023/03/25 08:10:58;;;;;;;2.80;1.10;;;;;;;12.53;63.92;99797.41;5028540;28;20406;-73
2023/03/25 08:13:24;;;;;;;0.50;0.30;;;;;;;12.13;65.96;99812.63;5030594;28;20406;-73
2023/03/25 08:15:50;;;;;;;5.55;0.50;;;;;;;11.78;68.09;99818.00;5017987;28;20759;-73
2023/03/25 08:18:16;;;;;;;3.20;0.73;;;;;;;11.64;69.83;99822.28;5024807;28;20399;-73
2023/03/25 08:20:41;;;;;;;3.57;0.50;;;;;;;11.48;72.06;99810.56;5026129;28;20424;-73
2023/03/25 08:23:09;;;;;;;0.85;0.30;;;;;;;11.44;72.93;99809.47;5026846;28;20400;-73
2023/03/25 08:25:36;;;;;;;3.10;0.40;;;;;;;11.36;73.41;99801.84;5021704;28;20431;-73
2023/03/25 08:28:02;;;;;;;1.10;0.35;;;;;;;11.39;73.89;99821.09;5026699;28;20878;-74
2023/03/25 08:30:28;;;;;;;1.52;0.35;;;;;;;11.82;73.94;99828.03;5025671;28;20437;-73
2023/03/25 08:32:53;;;;;;;3.00;0.60;;;;;;;11.99;73.06;99822.38;5019151;28;20487;-73
2023/03/25 08:35:20;;;;;;;2.33;0.40;;;;;;;12.02;72.40;99831.91;5026605;28;20888;-73
2023/03/25 08:37:46;;;;;;;1.65;0.70;;;;;;;12.06;72.08;99831.06;5017897;28;20838;-73
2023/03/25 08:40:11;;;;;;;2.20;0.70;;;;;;;12.23;71.74;99837.06;5016268;28;20466;-73
2023/03/25 08:42:37;;;;;;;2.10;1.30;;;;;;;12.23;71.63;99838.97;5022930;28;20424;-73
2023/03/25 08:45:04;;;;;;;5.77;0.80;;;;;;;12.24;71.90;99846.88;5036590;28;20453;-73
2023/03/25 08:47:30;;;;;;;1.35;0.60;;;;;;;12.28;71.37;99839.00;5022043;28;20443;-73
2023/03/25 08:49:55;;;;;;;3.07;0.60;;;;;;;12.31;71.59;99838.44;5027451;28;20820;-72
2023/03/25 08:52:20;;;;;;;2.03;0.40;;;;;;;12.54;71.81;99837.91;5020502;28;20481;-72
2023/03/25 08:54:45;;;;;;;2.17;0.70;;;;;;;12.56;71.18;99837.63;5030104;28;20433;-73
2023/03/25 08:57:11;;;;;;;1.33;0.38;;;;;;;12.65;71.03;99835.97;5030695;28;20491;-73
2023/03/25 08:59:36;;;;;;;1.70;0.60;;;;;;;12.50;71.32;99823.22;5030539;28;20417;-72
2023/03/25 09:02:02;;;;;;;1.40;0.47;;;;;;;12.34;71.22;99841.44;5030911;28;20395;-72
2023/03/25 09:04:27;;;;;;;1.43;0.40;;;;;;;12.34;71.76;99843.34;5023582;28;20526;-73
2023/03/25 09:06:52;;;;;;;4.00;0.80;;;;;;;12.46;71.19;99825.66;5018542;28;20768;-73
2023/03/25 09:09:18;;;;;;;1.70;0.70;;;;;;;12.55;71.03;99835.97;5019210;28;20399;-73
2023/03/25 09:11:44;;;;;;;2.00;0.43;;;;;;;12.39;71.53;99844.16;5025324;28;20399;-73
2023/03/25 09:14:09;;;;;;;2.22;0.65;;;;;;;12.02;72.90;99838.13;5026013;28;20460;-72
2023/03/25 09:16:34;;;;;;;3.40;1.10;;;;;;;11.84;74.71;99835.94;5027449;28;20403;-73
2023/03/25 09:19:00;;;;;;;4.60;0.80;;;;;;;11.86;75.70;99839.19;5018510;28;20413;-73
2023/03/25 09:21:26;;;;;;;3.35;0.75;;;;;;;11.99;76.01;99827.81;5018247;28;20867;-73
2023/03/25 09:23:51;;;;;;;2.97;0.80;;;;;;;12.04;75.98;99824.28;5020308;28;20497;-73
2023/03/25 09:26:17;;;;;;;3.50;0.50;;;;;;;12.00;76.07;99824.00;5021187;28;20751;-73
2023/03/25 09:28:42;;;;;;;7.30;1.93;;;;;;;12.26;75.58;99841.16;5030136;28;20758;-73
2023/03/25 09:31:08;;;;;;;2.30;0.80;;;;;;;12.26;75.28;99838.44;5027261;28;20417;-72
2023/03/25 09:33:33;;;;;;;8.40;1.90;;;;;;;12.31;75.88;99842.00;5015690;28;20415;-73
2023/03/25 09:35:59;;;;;;;8.13;2.20;;;;;;;12.45;75.42;99851.22;5022552;28;20489;-73
2023/03/25 09:38:24;;;;;;;4.07;1.20;;;;;;;12.32;75.86;99835.44;5029941;28;20557;-73
2023/03/25 09:40:49;;;;;;;3.30;1.33;;;;;;;12.31;75.93;99835.72;5028803;28;20452;-73
2023/03/25 09:43:31;;;;;;;1.83;0.63;;;;;;;12.40;75.41;99837.63;5033781;28;20452;-73
2023/03/25 09:45:58;;;;;;;3.45;1.30;;;;;;;12.31;74.84;99828.41;5030567;28;20494;-73
2023/03/25 09:48:24;;;;;;;3.58;1.25;;;;;;;12.94;74.67;99835.13;5013297;28;20399;-73
2023/03/25 09:50:49;;;;;;;4.17;1.40;;;;;;;14.02;72.83;99827.06;5018371;28;20468;-73
2023/03/25 09:53:25;;;;;;;2.07;0.70;;;;;;;14.99;69.26;99829.78;5027489;28;20875;-73
2023/03/25 09:55:51;;;;;;;4.15;0.80;;;;;;;14.92;68.02;99824.69;5028085;28;20398;-73
2023/03/25 09:58:34;;;;;;;2.38;0.40;;;;;;;15.23;66.56;99827.09;5017588;28;20401;-73
2023/03/25 10:01:04;;;;;;;2.85;0.95;;;;;;;15.46;65.49;99821.63;5030011;28;20914;-73
2023/03/25 10:04:03;;;;;;;2.92;1.02;;;;;;;16.60;62.48;99826.81;5026217;28;20488;-72
2023/03/25 10:06:35;;;;;;;1.90;0.93;;;;;;;16.71;61.32;99820.06;5021301;28;20417;-73
2023/03/25 10:09:34;;;;;;;0.73;0.70;;;;;;;17.44;58.63;99806.31;5035262;28;20418;-73
2023/03/25 10:12:24;;;;;;;1.50;0.75;;;;;;;17.33;58.33;99820.53;5035937;28;20401;-73
2023/03/25 10:14:55;;;;;;;2.95;0.80;;;;;;;18.40;54.92;99801.41;5013737;28;20395;-73
2023/03/25 10:17:29;;;;;;;2.65;0.82;;;;;;;17.91;54.70;99807.00;5045829;28;20408;-73
2023/03/25 10:20:25;;;;;;;2.20;1.00;;;;;;;16.13;58.14;99808.69;5030817;28;20459;-73
2023/03/25 10:23:01;;;;;;;5.15;0.90;;;;;;;16.94;57.94;99815.53;5023376;28;20388;-72
2023/03/25 10:25:29;;;;;;;1.40;0.70;;;;;;;19.13;51.99;99817.34;5039128;28;20399;-73
2023/03/25 10:27:56;;;;;;;1.95;0.65;;;;;;;20.62;47.46;99822.44;5028436;28;20479;-73
2023/03/25 10:30:38;;;;;;;0.45;0.45;;;;;;;21.96;44.74;99824.53;5034174;28;20493;-73
2023/03/25 10:33:13;;;;;;;1.80;0.60;;;;;;;21.11;45.93;99818.28;5027293;28;20391;-73
2023/03/25 10:35:44;;;;;;;0.85;0.40;;;;;;;22.79;43.51;99818.13;5031702;28;20403;-72
2023/03/25 10:38:24;;;;;;;2.72;1.20;;;;;;;22.60;40.87;99816.66;5019350;28;20461;-73
2023/03/25 10:40:58;;;;;;;2.90;0.98;;;;;;;19.87;45.68;99806.41;5034319;28;20438;-73
2023/03/25 10:43:40;;;;;;;2.70;0.95;;;;;;;18.06;48.27;99803.88;5025987;28;20466;-73
2023/03/25 10:46:15;;;;;;;2.47;0.70;;;;;;;17.02;50.98;99801.97;5020800;28;20404;-73
2023/03/25 10:48:41;;;;;;;3.40;1.00;;;;;;;16.82;51.45;99810.56;5052216;28;20474;-73
2023/03/25 10:51:10;;;;;;;1.60;0.83;;;;;;;16.45;52.59;99814.19;5032002;28;20973;-72
2023/03/25 10:53:36;;;;;;;2.05;0.90;;;;;;;16.69;51.48;99808.63;5021776;28;20818;-73
2023/03/25 10:56:06;;;;;;;3.40;0.90;;;;;;;16.82;50.00;99804.28;5045717;28;20476;-73
2023/03/25 10:58:32;;;;;;;1.40;0.60;;;;;;;16.43;50.66;99808.19;5027612;28;20390;-73
2023/03/25 11:01:00;;;;;;;3.47;0.60;;;;;;;16.34;49.86;99804.50;5029563;28;20428;-73
2023/03/25 11:03:33;;;;;;;2.22;1.05;;;;;;;18.07;47.96;99797.28;5029600;28;20403;-73
2023/03/25 11:05:59;;;;;;;3.58;0.80;;;;;;;21.11;42.06;99800.94;5024056;28;20776;-73
2023/03/25 11:08:26;;;;;;;0.98;0.47;;;;;;;21.85;39.17;99805.88;5023136;28;20409;-73
2023/03/25 11:10:56;;;;;;;1.23;0.77;;;;;;;20.80;40.53;99819.66;5022186;28;20463;-73
2023/03/25 11:13:27;;;;;;;1.50;0.53;;;;;;;18.74;44.50;99811.03;5015935;28;20403;-73
2023/03/25 11:15:56;;;;;;;2.72;0.40;;;;;;;18.30;47.89;99809.91;5032559;28;20409;-73
2023/03/25 11:18:27;;;;;;;3.30;0.73;;;;;;;20.15;46.14;99806.94;5029709;28;20407;-73
2023/03/25 11:21:01;;;;;;;0.90;0.50;;;;;;;20.17;41.44;99816.47;5033341;28;20837;-73
2023/03/25 11:23:33;;;;;;;3.25;0.68;;;;;;;19.85;42.00;99816.94;5017973;28;20404;-73
2023/03/25 11:26:29;;;;;;;3.28;1.02;;;;;;;18.75;44.46;99815.38;5023441;28;20402;-73
2023/03/25 11:28:59;;;;;;;2.75;0.93;;;;;;;17.87;46.43;99827.91;5016489;28;20395;-72
2023/03/25 11:31:28;;;;;;;4.68;0.75;;;;;;;17.15;46.64;99826.91;5026131;28;20772;-73
2023/03/25 11:34:09;;;;;;;2.25;0.77;;;;;;;16.41;47.89;99821.34;5013425;28;20419;-73
2023/03/25 11:36:39;;;;;;;2.88;1.10;;;;;;;16.10;49.08;99829.22;5028970;28;20406;-73
2023/03/25 11:39:38;;;;;;;3.30;1.05;;;;;;;15.90;49.67;99831.44;5018457;28;20415;-73
2023/03/25 11:42:15;;;;;;;2.58;0.98;;;;;;;15.69;50.86;99814.50;5016672;28;20424;-73
2023/03/25 11:44:40;;;;;;;3.42;0.60;;;;;;;15.56;51.09;99829.72;5038681;28;20500;-73
2023/03/25 11:47:09;;;;;;;1.05;0.60;;;;;;;15.51;51.26;99840.69;5023575;28;20923;-73